Time;durP1;ratioP1;P1;durP2;ratioP2;P2;SDS_P1;SDS_P2;PMS_P1;PMS_P2;Temp;Humidity;BMP_temperature;BMP_pressure;BME280_temperature;BME280_humidity;BME280_pressure;Samples;Min_cycle;Max_cycle;Signal;HPM_P1;HPM_P2
2020/12/24 00:00:11;;;;;;;1.48;1.17;;;9.90;94.30;;;;;;4992880;28;20022;-86
2020/12/24 00:02:36;;;;;;;1.73;1.30;;;9.80;94.30;;;;;;4976078;28;20037;-85
2020/12/24 00:05:06;;;;;;;2.70;1.20;;;9.80;94.30;;;;;;4993700;28;20096;-85
2020/12/24 00:07:31;;;;;;;2.70;1.25;;;9.80;94.30;;;;;;4991800;28;20480;-86
2020/12/24 00:09:59;;;;;;;2.33;1.02;;;9.90;94.30;;;;;;4993190;28;20060;-86
2020/12/24 00:12:27;;;;;;;2.67;1.20;;;9.90;94.30;;;;;;4982524;28;20030;-85
2020/12/24 00:14:53;;;;;;;2.42;0.90;;;9.90;94.30;;;;;;4993249;28;20151;-85
2020/12/24 00:17:19;;;;;;;3.05;1.35;;;9.90;94.30;;;;;;4992876;28;20030;-86
2020/12/24 00:19:45;;;;;;;1.10;0.90;;;9.80;94.20;;;;;;4966819;28;749030;-85
2020/12/24 00:22:13;;;;;;;2.30;1.00;;;9.80;94.20;;;;;;5012618;28;20034;-86
2020/12/24 00:24:41;;;;;;;3.83;1.40;;;9.80;94.20;;;;;;4996523;28;20049;-87
2020/12/24 00:27:07;;;;;;;2.88;0.93;;;9.80;94.10;;;;;;4995864;28;20068;-85
2020/12/24 00:29:36;;;;;;;5.88;1.20;;;9.80;94.10;;;;;;4996834;28;20039;-85
2020/12/24 00:32:07;;;;;;;2.30;0.98;;;9.70;94.10;;;;;;4997105;28;20022;-85
2020/12/24 00:34:33;;;;;;;;;;;9.70;94.00;;;;;;4996532;28;20088;-85
2020/12/24 00:37:01;;;;;;;2.13;1.17;;;9.70;94.00;;;;;;4997513;28;20369;-86
2020/12/24 00:39:27;;;;;;;2.10;1.02;;;9.70;94.00;;;;;;4981312;28;20022;-85
2020/12/24 00:41:53;;;;;;;3.78;1.50;;;9.70;94.00;;;;;;4974632;28;20037;-86
2020/12/24 00:44:24;;;;;;;3.25;1.10;;;9.70;94.00;;;;;;4996389;28;20030;-85
2020/12/24 00:46:50;;;;;;;2.17;1.20;;;9.60;94.00;;;;;;4997609;28;20049;-85
2020/12/24 00:49:24;;;;;;;4.22;1.90;;;9.60;94.00;;;;;;5014341;28;20029;-85
2020/12/24 00:51:50;;;;;;;3.70;1.40;;;9.60;94.00;;;;;;4996607;28;20048;-85
2020/12/24 00:54:23;;;;;;;5.85;1.60;;;9.60;93.90;;;;;;5008554;28;20444;-85
2020/12/24 00:56:49;;;;;;;4.22;2.22;;;9.60;93.90;;;;;;4990435;28;20033;-85
2020/12/24 00:59:15;;;;;;;5.75;1.73;;;9.60;93.80;;;;;;4995959;28;20041;-85
2020/12/24 01:01:55;;;;;;;6.10;1.77;;;9.60;93.80;;;;;;4996179;28;20057;-85
2020/12/24 01:04:26;;;;;;;5.78;1.52;;;9.60;93.80;;;;;;4980446;28;20042;-85
2020/12/24 01:06:57;;;;;;;6.78;1.63;;;9.60;93.80;;;;;;4981876;28;20120;-86
2020/12/24 01:09:23;;;;;;;6.32;1.48;;;9.50;93.70;;;;;;4991690;28;20037;-84
2020/12/24 01:11:49;;;;;;;6.55;1.65;;;9.50;93.70;;;;;;5017570;28;20033;-85
2020/12/24 01:14:17;;;;;;;7.32;1.63;;;9.50;93.80;;;;;;5013404;28;20029;-86
2020/12/24 01:16:52;;;;;;;8.35;1.80;;;9.50;93.70;;;;;;4995229;28;20033;-85
2020/12/24 01:19:18;;;;;;;8.15;1.90;;;9.50;93.70;;;;;;4996040;28;20049;-85
2020/12/24 01:21:49;;;;;;;8.68;2.05;;;9.50;93.70;;;;;;4995403;28;20497;-85
2020/12/24 01:24:15;;;;;;;;;;;9.50;93.50;;;;;;4997065;28;20076;-85
2020/12/24 01:26:48;;;;;;;7.82;1.80;;;9.40;93.70;;;;;;5012314;28;19945;-85
2020/12/24 01:29:19;;;;;;;8.23;1.50;;;9.40;93.50;;;;;;4995691;28;20072;-86
2020/12/24 01:31:48;;;;;;;;;;;9.40;93.50;;;;;;4976790;28;20033;-85
2020/12/24 01:34:15;;;;;;;7.32;2.35;;;9.30;93.40;;;;;;4975642;28;19906;-85
2020/12/24 01:36:42;;;;;;;7.32;1.63;;;9.30;93.40;;;;;;4985382;28;20039;-85
2020/12/24 01:39:11;;;;;;;4.72;1.70;;;9.30;93.40;;;;;;4976796;28;20069;-85
2020/12/24 01:41:47;;;;;;;;;;;;;;;;;;;;;
2020/12/24 01:44:16;;;;;;;3.50;1.02;;;9.30;93.30;;;;;;5010937;28;20033;-85
2020/12/24 01:46:44;;;;;;;2.33;0.77;;;9.30;93.20;;;;;;4995832;28;20037;-85
2020/12/24 01:49:10;;;;;;;4.43;1.20;;;9.30;93.20;;;;;;4979899;28;20038;-85
2020/12/24 01:51:45;;;;;;;3.38;1.00;;;9.20;93.20;;;;;;4995646;28;20515;-88
2020/12/24 01:54:18;;;;;;;3.10;1.05;;;9.20;93.20;;;;;;4994833;28;20511;-86
2020/12/24 01:56:47;;;;;;;2.92;1.13;;;9.20;93.20;;;;;;4994341;28;20030;-85
2020/12/24 01:59:17;;;;;;;4.78;1.05;;;9.20;93.20;;;;;;4995251;28;20091;-85
2020/12/24 02:01:51;;;;;;;2.15;0.77;;;9.20;93.20;;;;;;4995563;28;20030;-85
2020/12/24 02:04:19;;;;;;;2.20;0.63;;;9.20;93.20;;;;;;4994605;28;20076;-85
2020/12/24 02:06:51;;;;;;;2.70;1.20;;;9.20;93.20;;;;;;5001450;28;20097;-85
2020/12/24 02:09:21;;;;;;;4.97;1.10;;;9.20;93.20;;;;;;4984660;28;20033;-84
2020/12/24 02:11:52;;;;;;;5.50;1.10;;;9.10;93.20;;;;;;4973811;28;20093;-85
2020/12/24 02:14:21;;;;;;;3.90;1.15;;;9.10;93.20;;;;;;4979665;28;20089;-85
2020/12/24 02:16:49;;;;;;;3.58;1.02;;;9.10;93.10;;;;;;4989557;28;20030;-84
2020/12/24 02:19:19;;;;;;;4.50;1.52;;;9.10;93.10;;;;;;4994157;28;20026;-85
2020/12/24 02:21:45;;;;;;;4.65;1.20;;;9.10;93.20;;;;;;4993383;28;20053;-85
2020/12/24 02:24:13;;;;;;;6.55;1.50;;;9.10;93.10;;;;;;4993305;28;20040;-86
2020/12/24 02:26:42;;;;;;;4.75;1.58;;;9.10;93.10;;;;;;4991202;28;20050;-87
2020/12/24 02:29:10;;;;;;;5.82;1.33;;;9.10;93.10;;;;;;4993971;28;20030;-85
2020/12/24 02:31:36;;;;;;;4.38;1.63;;;9.00;93.10;;;;;;4993675;28;20092;-84
2020/12/24 02:34:04;;;;;;;6.30;1.40;;;9.00;93.10;;;;;;4990985;28;20026;-84
2020/12/24 02:36:30;;;;;;;6.68;1.70;;;9.00;93.10;;;;;;4993162;28;20146;-84
2020/12/24 02:38:58;;;;;;;8.10;1.95;;;9.00;93.10;;;;;;4976573;28;20051;-83
2020/12/24 02:41:24;;;;;;;5.97;1.98;;;9.10;93.00;;;;;;4994166;28;20488;-86
2020/12/24 02:43:50;;;;;;;10.05;1.88;;;9.00;93.00;;;;;;4994468;28;20121;-85
2020/12/24 02:46:16;;;;;;;10.40;2.50;;;9.10;93.00;;;;;;4994985;28;20568;-86
2020/12/24 02:48:48;;;;;;;5.32;1.58;;;9.00;93.00;;;;;;4993669;28;20022;-86
2020/12/24 02:51:14;;;;;;;10.32;2.25;;;9.10;92.90;;;;;;4995267;28;20030;-84
2020/12/24 02:53:40;;;;;;;6.95;2.33;;;9.10;92.90;;;;;;4994728;28;20033;-84
2020/12/24 02:56:08;;;;;;;7.88;1.77;;;9.10;92.90;;;;;;4994791;28;20021;-84
2020/12/24 02:58:34;;;;;;;8.30;1.77;;;9.10;93.00;;;;;;4993902;28;20022;-83
2020/12/24 03:01:00;;;;;;;5.18;1.50;;;9.10;93.00;;;;;;4994611;28;20095;-84
2020/12/24 03:03:28;;;;;;;5.07;1.58;;;9.00;93.00;;;;;;4993775;28;20030;-86
2020/12/24 03:05:54;;;;;;;8.75;1.67;;;9.00;93.00;;;;;;4977494;28;20122;-86
2020/12/24 03:08:21;;;;;;;12.00;2.17;;;9.00;93.00;;;;;;4993567;28;20464;-85
2020/12/24 03:10:46;;;;;;;8.55;1.90;;;9.00;92.90;;;;;;4987905;28;20514;-84
2020/12/24 03:13:13;;;;;;;6.95;2.05;;;9.10;93.00;;;;;;4993515;28;20061;-84
2020/12/24 03:15:40;;;;;;;9.63;1.98;;;9.10;93.00;;;;;;4994355;28;20434;-84
2020/12/24 03:18:06;;;;;;;5.18;1.55;;;9.00;92.90;;;;;;4993192;28;20083;-84
2020/12/24 03:20:32;;;;;;;7.63;1.65;;;9.00;93.00;;;;;;5011649;28;20049;-85
2020/12/24 03:22:57;;;;;;;7.45;2.05;;;9.00;93.00;;;;;;4961307;28;20045;-86
2020/12/24 03:25:23;;;;;;;7.35;1.83;;;9.00;92.90;;;;;;4978359;28;20034;-85
2020/12/24 03:27:49;;;;;;;7.75;1.67;;;9.00;92.90;;;;;;4993941;28;20121;-85
2020/12/24 03:30:15;;;;;;;7.78;1.88;;;9.00;92.90;;;;;;4993380;28;20057;-86
2020/12/24 03:32:40;;;;;;;6.78;1.60;;;9.00;92.90;;;;;;4994409;28;20022;-85
2020/12/24 03:35:07;;;;;;;5.75;1.55;;;9.00;92.90;;;;;;4992254;28;20029;-87
2020/12/24 03:37:35;;;;;;;6.20;1.88;;;9.00;92.90;;;;;;5011764;28;20037;-86
2020/12/24 03:40:04;;;;;;;9.45;2.30;;;9.00;92.90;;;;;;4987755;28;20026;-85
2020/12/24 03:42:30;;;;;;;8.35;2.08;;;9.00;92.90;;;;;;5010629;28;20029;-85
2020/12/24 03:44:56;;;;;;;6.28;1.75;;;9.00;92.90;;;;;;4990470;28;20041;-84
2020/12/24 03:47:22;;;;;;;8.77;2.05;;;9.00;92.90;;;;;;4975454;28;20472;-84
2020/12/24 03:49:57;;;;;;;10.93;1.95;;;9.00;93.00;;;;;;4992754;28;20026;-86
2020/12/24 03:52:25;;;;;;;7.75;2.15;;;9.00;92.90;;;;;;4985116;28;20041;-84
2020/12/24 03:54:51;;;;;;;7.13;1.60;;;9.00;92.90;;;;;;4977581;28;20033;-86
2020/12/24 03:57:17;;;;;;;9.70;1.75;;;9.00;93.00;;;;;;4995765;28;20068;-84
2020/12/24 03:59:42;;;;;;;10.57;2.20;;;9.00;93.00;;;;;;4997211;28;20165;-84
2020/12/24 04:02:08;;;;;;;7.90;1.92;;;9.00;93.00;;;;;;4997562;28;20128;-85
2020/12/24 04:04:34;;;;;;;9.05;2.22;;;9.00;93.10;;;;;;5015125;28;20038;-85
2020/12/24 04:06:59;;;;;;;8.55;2.10;;;9.00;93.00;;;;;;4995971;28;20057;-85
2020/12/24 04:09:25;;;;;;;6.97;2.30;;;9.00;93.00;;;;;;4998072;28;20144;-85
2020/12/24 04:11:53;;;;;;;9.40;1.98;;;9.00;93.00;;;;;;4996580;28;20021;-85
2020/12/24 04:14:19;;;;;;;10.38;2.55;;;9.00;93.00;;;;;;4997833;28;20080;-85
2020/12/24 04:16:45;;;;;;;8.45;2.22;;;9.00;93.10;;;;;;4991084;28;20056;-85
2020/12/24 04:19:16;;;;;;;7.15;1.98;;;8.90;93.10;;;;;;4969542;28;20026;-84
2020/12/24 04:21:41;;;;;;;13.73;2.08;;;8.90;93.10;;;;;;4996619;28;20050;-84
2020/12/24 04:24:07;;;;;;;6.53;1.80;;;9.00;93.10;;;;;;4996756;28;20034;-84
2020/12/24 04:26:33;;;;;;;8.52;2.00;;;8.90;93.10;;;;;;4980164;28;20029;-84
2020/12/24 04:28:59;;;;;;;6.47;1.48;;;9.00;93.20;;;;;;4996973;28;20025;-85
2020/12/24 04:31:24;;;;;;;9.80;2.60;;;9.00;93.20;;;;;;4997109;28;20064;-84
2020/12/24 04:33:51;;;;;;;12.90;2.92;;;8.90;93.10;;;;;;4997136;28;20518;-84
2020/12/24 04:36:18;;;;;;;9.32;2.67;;;8.90;93.10;;;;;;4997862;28;20061;-84
2020/12/24 04:38:46;;;;;;;8.68;2.10;;;8.90;93.10;;;;;;4996574;28;20067;-84
2020/12/24 04:41:12;;;;;;;11.73;2.47;;;8.90;93.10;;;;;;4980822;28;20092;-85
2020/12/24 04:43:39;;;;;;;11.60;2.00;;;9.00;93.20;;;;;;4995337;28;20022;-84
2020/12/24 04:46:09;;;;;;;5.60;1.90;;;9.00;93.20;;;;;;4997042;28;20026;-85
2020/12/24 04:48:37;;;;;;;9.18;2.38;;;9.00;93.20;;;;;;5013347;28;20029;-84
2020/12/24 04:51:08;;;;;;;8.75;2.25;;;8.90;93.20;;;;;;4996574;28;20026;-84
2020/12/24 04:53:37;;;;;;;9.90;2.30;;;9.00;93.20;;;;;;5014306;28;20095;-85
2020/12/24 04:56:06;;;;;;;6.82;2.35;;;9.00;93.20;;;;;;4988702;28;20324;-84
2020/12/24 04:58:34;;;;;;;9.32;2.70;;;9.00;93.20;;;;;;5013570;28;20033;-84
2020/12/24 05:01:03;;;;;;;7.93;2.30;;;9.00;93.20;;;;;;4989671;28;20527;-84
2020/12/24 05:03:31;;;;;;;10.00;2.40;;;9.00;93.20;;;;;;4996156;28;20399;-85
2020/12/24 05:05:58;;;;;;;8.05;2.38;;;9.00;93.20;;;;;;4996228;28;20022;-84
2020/12/24 05:08:24;;;;;;;4.15;1.40;;;8.90;93.10;;;;;;4991075;28;20038;-84
2020/12/24 05:11:07;;;;;;;1.33;0.50;;;8.90;92.50;;;;;;5003799;28;20083;-85
2020/12/24 05:13:36;;;;;;;0.43;0.32;;;8.60;91.40;;;;;;4995627;28;20042;-84
2020/12/24 05:16:19;;;;;;;0.88;0.30;;;8.20;91.10;;;;;;5007804;28;20030;-85
2020/12/24 05:18:45;;;;;;;0.30;0.17;;;8.00;90.90;;;;;;5008175;28;20093;-85
2020/12/24 05:21:30;;;;;;;0.15;0.15;;;7.70;91.20;;;;;;4987753;28;20136;-85
2020/12/24 05:23:55;;;;;;;0.10;0.10;;;7.50;90.80;;;;;;4991272;28;20034;-88
2020/12/24 05:26:21;;;;;;;0.30;0.30;;;7.30;90.70;;;;;;5010492;28;20044;-86
2020/12/24 05:28:47;;;;;;;0.13;0.13;;;7.20;91.00;;;;;;4999273;28;20092;-85
2020/12/24 05:31:31;;;;;;;1.77;0.40;;;7.00;91.10;;;;;;4990361;28;20037;-85
2020/12/24 05:33:57;;;;;;;0.40;0.30;;;6.90;91.00;;;;;;4987029;28;20022;-86
2020/12/24 05:36:23;;;;;;;0.47;0.30;;;6.80;90.80;;;;;;4987777;28;20030;-85
2020/12/24 05:38:50;;;;;;;0.20;0.10;;;6.60;90.90;;;;;;5006619;28;20511;-85
2020/12/24 05:41:29;;;;;;;0.40;0.20;;;6.40;91.10;;;;;;4985923;28;20026;-85
2020/12/24 05:44:03;;;;;;;0.20;0.20;;;6.40;91.20;;;;;;5011067;28;20033;-85
2020/12/24 05:46:39;;;;;;;0.10;0.10;;;6.30;91.30;;;;;;5004959;28;20014;-86
2020/12/24 05:49:16;;;;;;;0.10;0.10;;;6.30;91.50;;;;;;5003337;28;20049;-86
2020/12/24 05:51:50;;;;;;;0.13;0.13;;;6.20;91.40;;;;;;4992068;28;20017;-86
2020/12/24 05:54:19;;;;;;;0.32;0.30;;;6.20;91.50;;;;;;4989406;28;20030;-84
2020/12/24 05:56:45;;;;;;;0.20;0.20;;;6.10;91.50;;;;;;4988946;28;20030;-86
2020/12/24 05:59:19;;;;;;;0.10;0.10;;;6.10;91.40;;;;;;4971567;28;20030;-86
2020/12/24 06:01:57;;;;;;;1.65;0.35;;;6.00;91.40;;;;;;4984875;28;20038;-84
2020/12/24 06:04:37;;;;;;;0.32;0.28;;;5.90;91.20;;;;;;4986692;28;20162;-84
2020/12/24 06:07:10;;;;;;;0.32;0.28;;;5.80;91.30;;;;;;4988639;28;20027;-85
2020/12/24 06:09:38;;;;;;;0.30;0.30;;;5.80;91.50;;;;;;5009553;28;20038;-86
2020/12/24 06:12:24;;;;;;;0.75;0.10;;;5.80;91.50;;;;;;5013364;28;20365;-85
2020/12/24 06:14:53;;;;;;;0.40;0.13;;;5.70;91.40;;;;;;5014339;28;20476;-84
2020/12/24 06:17:21;;;;;;;0.17;0.17;;;5.70;91.40;;;;;;4978254;28;20049;-85
2020/12/24 06:19:47;;;;;;;0.22;0.22;;;5.70;91.50;;;;;;5010022;28;20113;-84
2020/12/24 06:22:19;;;;;;;1.40;0.35;;;5.60;91.60;;;;;;4994276;28;20041;-85
2020/12/24 06:24:53;;;;;;;0.17;0.17;;;5.60;91.60;;;;;;4994080;28;20030;-85
2020/12/24 06:27:43;;;;;;;0.80;0.40;;;5.60;91.60;;;;;;4994598;28;20022;-85
2020/12/24 06:30:19;;;;;;;0.68;0.30;;;5.60;91.60;;;;;;4993911;28;20129;-85
2020/12/24 06:32:53;;;;;;;1.38;0.30;;;5.50;91.70;;;;;;4995110;28;20564;-85
2020/12/24 06:35:31;;;;;;;0.35;0.20;;;5.50;91.70;;;;;;4994853;28;20022;-85
2020/12/24 06:37:57;;;;;;;0.30;0.30;;;5.50;91.60;;;;;;4994796;28;20033;-85
2020/12/24 06:40:37;;;;;;;0.10;0.10;;;5.40;91.60;;;;;;4994295;28;20033;-84
2020/12/24 06:43:04;;;;;;;0.80;0.50;;;5.40;91.80;;;;;;4994481;28;20042;-86
2020/12/24 06:45:35;;;;;;;0.47;0.25;;;5.40;91.70;;;;;;4984787;28;20028;-87
2020/12/24 06:48:20;;;;;;;0.52;0.38;;;5.40;91.80;;;;;;4979416;28;20018;-86
2020/12/24 06:50:47;;;;;;;0.32;0.30;;;5.40;91.90;;;;;;5011754;28;20022;-84
2020/12/24 06:53:36;;;;;;;1.10;0.55;;;5.40;91.90;;;;;;4979066;28;20038;-85
2020/12/24 06:56:14;;;;;;;0.40;0.30;;;5.40;91.90;;;;;;4994278;28;20463;-86
2020/12/24 06:58:49;;;;;;;0.60;0.45;;;5.40;92.00;;;;;;4995022;28;20030;-85
2020/12/24 07:01:20;;;;;;;0.80;0.50;;;5.40;92.00;;;;;;4993719;28;20048;-85
2020/12/24 07:03:46;;;;;;;1.00;0.60;;;5.30;92.00;;;;;;4979219;28;20034;-84
2020/12/24 07:06:12;;;;;;;0.93;0.50;;;5.30;92.00;;;;;;5001302;28;20376;-84
2020/12/24 07:08:48;;;;;;;1.02;0.50;;;5.40;92.10;;;;;;5013680;28;20095;-86
2020/12/24 07:11:47;;;;;;;0.60;0.45;;;5.40;92.20;;;;;;4999051;28;20424;-85
2020/12/24 07:14:42;;;;;;;0.77;0.50;;;5.40;92.20;;;;;;5011919;28;20038;-86
2020/12/24 07:17:18;;;;;;;1.33;0.43;;;5.50;92.20;;;;;;4974571;28;20042;-83
2020/12/24 07:19:46;;;;;;;1.02;0.50;;;5.50;92.20;;;;;;5022777;28;20051;-84
2020/12/24 07:22:14;;;;;;;0.60;0.47;;;5.60;92.20;;;;;;4978387;28;20049;-85
2020/12/24 07:24:40;;;;;;;0.80;0.40;;;5.60;92.20;;;;;;4993849;28;20057;-85
2020/12/24 07:27:10;;;;;;;2.50;0.88;;;5.60;92.10;;;;;;5011806;28;20546;-89
2020/12/24 07:29:35;;;;;;;1.50;0.50;;;5.60;92.10;;;;;;4978042;28;20602;-85
2020/12/24 07:32:08;;;;;;;0.43;0.43;;;5.60;92.00;;;;;;5015809;28;20135;-85
2020/12/24 07:34:36;;;;;;;0.63;0.50;;;5.60;92.00;;;;;;4982087;28;20591;-85
2020/12/24 07:37:05;;;;;;;1.02;0.35;;;5.60;92.00;;;;;;4981788;28;20759;-84
2020/12/24 07:39:32;;;;;;;0.95;0.50;;;5.60;92.00;;;;;;4997998;28;20056;-85
2020/12/24 07:41:58;;;;;;;0.40;0.40;;;5.50;92.00;;;;;;5015035;28;20028;-84
2020/12/24 07:44:26;;;;;;;1.50;0.40;;;5.60;92.00;;;;;;5014888;28;20403;-85
2020/12/24 07:47:00;;;;;;;0.82;0.60;;;5.60;92.00;;;;;;4986368;28;20033;-84
2020/12/24 07:49:28;;;;;;;0.80;0.60;;;5.60;92.10;;;;;;4993982;28;20065;-84
2020/12/24 07:51:58;;;;;;;1.50;0.60;;;5.60;92.00;;;;;;4981097;28;20454;-84
2020/12/24 07:54:25;;;;;;;0.50;0.50;;;5.70;92.00;;;;;;4996289;28;20033;-83
2020/12/24 07:56:52;;;;;;;2.35;0.90;;;5.70;92.00;;;;;;4997107;28;20026;-85
2020/12/24 07:59:22;;;;;;;2.28;0.68;;;5.70;92.00;;;;;;4991240;28;20026;-85
2020/12/24 08:01:48;;;;;;;0.75;0.50;;;5.70;92.00;;;;;;4991458;28;20538;-85
2020/12/24 08:04:14;;;;;;;3.45;1.40;;;5.80;92.00;;;;;;4997068;28;20092;-84
2020/12/24 08:06:40;;;;;;;0.50;0.50;;;5.70;91.90;;;;;;4996960;28;20026;-86
2020/12/24 08:09:12;;;;;;;0.70;0.70;;;5.70;91.90;;;;;;5014526;28;20495;-86
2020/12/24 08:11:52;;;;;;;1.80;0.80;;;5.70;92.00;;;;;;5014245;28;20030;-84
2020/12/24 08:14:21;;;;;;;1.30;0.75;;;5.70;92.00;;;;;;4996897;28;20050;-84
2020/12/24 08:16:48;;;;;;;2.15;0.73;;;5.70;92.10;;;;;;4995746;28;20030;-84
2020/12/24 08:19:40;;;;;;;1.48;1.00;;;5.70;92.10;;;;;;4996595;28;20506;-85
2020/12/24 08:22:32;;;;;;;1.55;1.08;;;5.70;92.10;;;;;;4996752;28;20123;-85
2020/12/24 08:24:59;;;;;;;2.30;1.30;;;5.60;92.10;;;;;;4996517;28;20061;-85
2020/12/24 08:27:28;;;;;;;2.85;1.67;;;5.60;92.20;;;;;;4980448;28;20479;-84
2020/12/24 08:29:58;;;;;;;1.95;1.08;;;5.60;92.20;;;;;;4997317;28;20022;-85
2020/12/24 08:32:24;;;;;;;1.13;0.85;;;5.60;92.10;;;;;;4983256;28;20021;-85
2020/12/24 08:34:49;;;;;;;3.17;0.80;;;5.60;92.10;;;;;;5010262;28;20026;-84
2020/12/24 08:37:28;;;;;;;1.45;0.93;;;5.60;92.20;;;;;;5008593;28;20029;-84
2020/12/24 08:39:54;;;;;;;1.35;0.93;;;5.60;92.20;;;;;;5012069;28;20018;-85
2020/12/24 08:42:22;;;;;;;1.30;0.82;;;5.70;92.20;;;;;;5009990;28;20033;-83
2020/12/24 08:44:56;;;;;;;1.20;0.90;;;5.60;92.20;;;;;;4996801;28;20041;-85
2020/12/24 08:47:22;;;;;;;1.23;1.08;;;5.70;92.30;;;;;;4995883;28;20026;-84
2020/12/24 08:49:48;;;;;;;1.40;0.73;;;5.70;92.30;;;;;;4995166;28;20459;-84
2020/12/24 08:52:20;;;;;;;2.05;1.23;;;5.70;92.30;;;;;;4992153;28;20348;-85
2020/12/24 08:55:08;;;;;;;1.40;1.30;;;5.70;92.30;;;;;;4991499;28;20498;-86
2020/12/24 08:57:34;;;;;;;2.55;1.25;;;5.60;92.30;;;;;;4989283;28;20064;-85
2020/12/24 09:00:03;;;;;;;1.90;1.20;;;5.60;92.40;;;;;;5005418;28;20037;-85
2020/12/24 09:02:30;;;;;;;2.33;1.27;;;5.60;92.40;;;;;;5008303;28;20030;-83
2020/12/24 09:04:57;;;;;;;2.80;1.50;;;5.60;92.40;;;;;;4992084;28;20057;-85
2020/12/24 09:07:31;;;;;;;1.60;1.27;;;5.60;92.50;;;;;;4975498;28;20141;-85
2020/12/24 09:10:23;;;;;;;1.70;1.27;;;5.60;92.50;;;;;;4975671;28;20023;-84
2020/12/24 09:13:03;;;;;;;2.40;1.33;;;5.70;92.60;;;;;;4991358;28;20105;-84
2020/12/24 09:15:29;;;;;;;1.30;1.20;;;5.70;92.60;;;;;;5004566;28;20022;-85
2020/12/24 09:17:59;;;;;;;2.03;1.02;;;5.70;92.50;;;;;;4982268;28;20021;-85
2020/12/24 09:20:29;;;;;;;1.30;1.20;;;5.70;92.60;;;;;;4995333;28;20046;-85
2020/12/24 09:23:01;;;;;;;1.85;1.40;;;5.70;92.50;;;;;;4983889;28;20030;-85
2020/12/24 09:25:34;;;;;;;1.30;1.20;;;5.80;92.50;;;;;;4975518;28;20059;-84
2020/12/24 09:28:02;;;;;;;2.17;1.40;;;5.80;92.50;;;;;;4996187;28;20649;-84
2020/12/24 09:30:28;;;;;;;2.30;1.42;;;5.80;92.80;;;;;;5007279;28;20391;-84
2020/12/24 09:33:01;;;;;;;1.77;1.50;;;5.80;92.50;;;;;;4996769;28;20025;-83
2020/12/24 09:35:29;;;;;;;1.50;1.40;;;5.90;92.60;;;;;;4995242;28;20076;-85
2020/12/24 09:37:56;;;;;;;2.55;1.40;;;5.90;92.60;;;;;;4996857;28;20520;-84
2020/12/24 09:40:25;;;;;;;1.95;1.50;;;5.90;92.70;;;;;;4995770;28;20026;-85
2020/12/24 09:42:51;;;;;;;2.50;1.65;;;5.90;92.60;;;;;;5008085;28;20037;-84
2020/12/24 09:45:17;;;;;;;2.85;1.63;;;6.00;92.60;;;;;;4985639;28;20042;-86
2020/12/24 09:47:48;;;;;;;3.35;1.65;;;5.90;92.60;;;;;;5021160;28;20576;-85
2020/12/24 09:50:14;;;;;;;1.98;1.52;;;6.00;92.70;;;;;;4994329;28;20076;-84
2020/12/24 09:52:40;;;;;;;4.13;1.83;;;6.00;92.70;;;;;;4990200;28;20025;-85
2020/12/24 09:55:06;;;;;;;4.07;1.90;;;6.00;92.70;;;;;;4983244;28;20025;-86
2020/12/24 09:57:33;;;;;;;3.17;1.77;;;6.00;92.70;;;;;;4995301;28;20032;-85
2020/12/24 09:59:59;;;;;;;2.95;2.17;;;6.00;92.80;;;;;;4995029;28;20014;-84
2020/12/24 10:02:26;;;;;;;2.70;1.80;;;6.00;92.80;;;;;;4980875;28;20427;-84
2020/12/24 10:04:53;;;;;;;3.30;1.90;;;6.00;92.80;;;;;;4976916;28;20093;-85
2020/12/24 10:07:22;;;;;;;2.45;1.67;;;6.10;92.90;;;;;;4994121;28;20069;-86
2020/12/24 10:09:53;;;;;;;2.22;1.67;;;6.10;92.90;;;;;;4994659;28;20150;-84
2020/12/24 10:12:37;;;;;;;1.80;1.60;;;6.10;92.90;;;;;;4979142;28;20041;-85
2020/12/24 10:15:04;;;;;;;1.65;1.40;;;6.20;93.00;;;;;;4995958;28;20054;-87
2020/12/24 10:17:40;;;;;;;;;;;;;;;;;;;;;
2020/12/24 10:20:06;;;;;;;1.83;1.30;;;6.20;92.90;;;;;;4996681;28;20033;-84
2020/12/24 10:22:32;;;;;;;4.35;1.58;;;6.20;92.90;;;;;;4994971;28;20100;-85
2020/12/24 10:24:57;;;;;;;2.10;1.35;;;6.30;93.00;;;;;;4959405;28;20034;-85
2020/12/24 10:27:23;;;;;;;1.65;1.45;;;6.30;93.00;;;;;;4988685;28;20912;-85
2020/12/24 10:29:49;;;;;;;2.25;1.65;;;6.30;93.00;;;;;;4972477;28;20030;-84
2020/12/24 10:32:15;;;;;;;3.20;1.60;;;6.40;93.00;;;;;;4987024;28;20062;-85
2020/12/24 10:34:40;;;;;;;2.67;1.77;;;6.40;93.00;;;;;;4979567;28;20022;-85
2020/12/24 10:37:06;;;;;;;2.75;1.67;;;6.40;93.00;;;;;;4983345;28;20022;-85
2020/12/24 10:39:33;;;;;;;3.47;1.70;;;6.40;93.00;;;;;;5000409;28;20041;-84
2020/12/24 10:41:59;;;;;;;2.13;1.50;;;6.40;93.00;;;;;;4989953;28;20036;-85
2020/12/24 10:44:28;;;;;;;4.40;2.17;;;6.50;93.00;;;;;;4990022;28;20038;-85
2020/12/24 10:46:55;;;;;;;3.25;1.70;;;6.50;93.10;;;;;;5011837;28;20021;-85
2020/12/24 10:49:21;;;;;;;2.22;1.50;;;6.50;93.10;;;;;;5000942;28;20025;-84
2020/12/24 10:51:47;;;;;;;4.60;1.77;;;6.50;93.00;;;;;;4982787;28;21457;-86
2020/12/24 10:54:13;;;;;;;4.38;2.08;;;6.50;93.00;;;;;;4972838;28;20042;-86
2020/12/24 10:56:39;;;;;;;3.22;1.70;;;6.60;93.10;;;;;;4976445;28;20030;-86
2020/12/24 10:59:04;;;;;;;4.35;1.70;;;6.60;93.10;;;;;;4965176;28;20239;-84
2020/12/24 11:01:30;;;;;;;5.07;1.40;;;6.60;93.00;;;;;;4979020;28;20038;-85
2020/12/24 11:03:56;;;;;;;5.53;1.30;;;6.60;93.10;;;;;;4987721;28;21068;-86
2020/12/24 11:06:32;;;;;;;3.13;1.40;;;6.60;93.10;;;;;;4993269;28;20833;-84
2020/12/24 11:08:58;;;;;;;7.43;1.80;;;6.60;93.10;;;;;;4985878;28;20026;-87
2020/12/24 11:11:24;;;;;;;4.18;1.70;;;6.70;93.10;;;;;;4968360;28;20407;-84
2020/12/24 11:13:50;;;;;;;5.90;1.70;;;6.70;93.10;;;;;;4981123;28;20107;-84
2020/12/24 11:16:24;;;;;;;2.60;1.40;;;6.70;93.10;;;;;;4987952;28;20045;-86
2020/12/24 11:18:53;;;;;;;3.55;1.40;;;6.70;93.10;;;;;;4991542;28;20113;-84
2020/12/24 11:21:19;;;;;;;5.43;1.85;;;6.70;93.10;;;;;;4994393;28;20042;-85
2020/12/24 11:23:47;;;;;;;3.80;1.48;;;6.80;93.10;;;;;;4989791;28;20063;-85
2020/12/24 11:26:25;;;;;;;5.47;2.53;;;6.80;93.10;;;;;;5001308;28;20042;-85
2020/12/24 11:28:54;;;;;;;4.05;1.80;;;6.80;93.10;;;;;;4973928;28;20029;-86
2020/12/24 11:31:23;;;;;;;7.05;2.33;;;6.90;93.20;;;;;;5006744;28;20092;-84
2020/12/24 11:33:49;;;;;;;4.60;1.75;;;6.90;93.10;;;;;;4984550;28;20021;-85
2020/12/24 11:36:14;;;;;;;4.28;2.08;;;6.90;93.10;;;;;;4974166;28;20037;-84
2020/12/24 11:38:40;;;;;;;4.68;1.90;;;6.90;93.10;;;;;;4975355;28;20022;-85
2020/12/24 11:41:06;;;;;;;4.30;1.73;;;6.90;93.10;;;;;;4992119;28;20062;-86
2020/12/24 11:43:34;;;;;;;5.55;2.10;;;6.90;93.10;;;;;;4976898;28;20076;-84
2020/12/24 11:46:00;;;;;;;6.63;1.80;;;7.00;93.20;;;;;;4977844;28;20026;-85
2020/12/24 11:48:26;;;;;;;8.10;2.00;;;7.00;93.10;;;;;;4991656;28;20032;-86
2020/12/24 11:50:54;;;;;;;3.83;1.88;;;7.00;93.10;;;;;;4993385;28;20171;-85
2020/12/24 11:53:20;;;;;;;9.15;2.60;;;7.00;93.10;;;;;;4993381;28;20145;-84
2020/12/24 11:55:45;;;;;;;8.15;2.50;;;7.00;93.10;;;;;;4993653;28;20927;-83
2020/12/24 11:58:11;;;;;;;9.18;2.85;;;7.00;93.10;;;;;;4994337;28;20037;-85
2020/12/24 12:00:57;;;;;;;9.10;4.05;;;7.10;93.10;;;;;;4996605;28;20113;-84
2020/12/24 12:03:22;;;;;;;9.00;2.75;;;7.10;93.10;;;;;;4990923;28;20058;-83
2020/12/24 12:05:48;;;;;;;9.63;2.63;;;7.10;93.20;;;;;;4993984;28;20498;-84
2020/12/24 12:08:17;;;;;;;6.72;2.10;;;7.10;93.10;;;;;;4993336;28;20026;-84
2020/12/24 12:10:48;;;;;;;7.53;1.83;;;7.20;93.10;;;;;;4991901;28;20033;-83
2020/12/24 12:13:14;;;;;;;;;;;7.10;93.10;;;;;;4955647;28;20676;-85
2020/12/24 12:15:45;;;;;;;6.40;2.40;;;7.20;93.10;;;;;;5022153;28;19905;-84
2020/12/24 12:18:11;;;;;;;6.57;2.58;;;7.20;93.10;;;;;;4977432;28;20058;-85
2020/12/24 12:20:41;;;;;;;7.50;2.33;;;7.20;93.10;;;;;;4976254;28;20081;-85
2020/12/24 12:23:07;;;;;;;5.70;2.03;;;7.20;93.10;;;;;;4976758;28;20047;-83
2020/12/24 12:25:41;;;;;;;4.72;2.17;;;7.20;93.10;;;;;;4977089;28;20750;-83
2020/12/24 12:28:09;;;;;;;9.57;2.35;;;7.20;93.10;;;;;;5013011;28;20049;-84
2020/12/24 12:30:38;;;;;;;9.88;2.45;;;7.20;93.00;;;;;;5013134;28;20034;-84
2020/12/24 12:33:04;;;;;;;6.88;1.90;;;7.30;93.00;;;;;;4983700;28;20105;-84
2020/12/24 12:35:30;;;;;;;6.32;2.55;;;7.30;93.00;;;;;;4982093;28;20025;-85
2020/12/24 12:37:56;;;;;;;10.07;2.38;;;7.30;92.90;;;;;;4984248;28;20444;-84
2020/12/24 12:40:21;;;;;;;3.13;1.33;;;7.30;92.80;;;;;;4998918;28;20133;-85
2020/12/24 12:42:47;;;;;;;8.50;1.85;;;7.20;92.70;;;;;;4994725;28;20026;-84
2020/12/24 12:45:13;;;;;;;9.35;2.17;;;7.30;92.70;;;;;;4996390;28;20124;-84
2020/12/24 12:47:43;;;;;;;5.47;1.90;;;7.20;92.70;;;;;;4991474;28;20018;-86
2020/12/24 12:50:11;;;;;;;4.32;1.60;;;7.30;92.70;;;;;;4976979;28;20067;-86
2020/12/24 12:52:37;;;;;;;6.72;1.98;;;7.30;92.60;;;;;;4984402;28;20423;-85
2020/12/24 12:55:08;;;;;;;8.95;2.53;;;7.20;92.80;;;;;;4996163;28;20033;-87
2020/12/24 12:57:37;;;;;;;7.10;1.67;;;7.20;92.50;;;;;;4990137;28;20026;-87
2020/12/24 13:00:11;;;;;;;7.18;1.83;;;7.20;92.40;;;;;;4988103;28;20555;-85
2020/12/24 13:02:42;;;;;;;9.27;1.75;;;7.30;92.50;;;;;;4993484;28;20022;-85
2020/12/24 13:05:16;;;;;;;8.02;1.58;;;7.30;92.50;;;;;;4996884;28;20056;-84
2020/12/24 13:07:44;;;;;;;4.97;1.85;;;7.20;92.40;;;;;;4997691;28;20026;-85
2020/12/24 13:10:10;;;;;;;5.30;1.35;;;7.20;92.40;;;;;;4976488;28;20029;-85